Aérodrome :
LOGIN :

S'inscrire | Disclaimer

   EN    FR    IT 

 










Légende :    VFR   VFR Marginal   IFR   IFR Intensif   IFR Très Intensif
Visi : 
Plafond : 
>= 8 km
>= 3000ft
5 à 8 km
1000 à 3000 ft
1500m à 5 km
500 à 1000 ft
800 à 1500m
200 à 500 ft
< 800m
< 200 ft
Symboles :   Orages  Brouillard  Fortes neiges  Fortes précipitations  Vent > 20 kt
SIGMETs :   Divers  Orages  Givrage  Turbulence  Onde Orograph.  Cendres Volcan.






- Altitude de l'aérodrome : 195 ft


LFMY - Salon de Provence

DERNIER METAR :
  • 250030Z AUTO 07004KT 040V100 9999 FEW023 SCT240 15/14 Q1012

METARs EXPIRÉS :
  • 250000Z AUTO 06003KT 9999 BKN024 BKN060 15/15 Q1012
  • 242330Z AUTO 05004KT 9999 FEW024/// BKN058/// //////TCU 16/15 Q1012
  • 242300Z AUTO 07003KT 9999 FEW034/// OVC054/// ///CB 16/16 Q1012
  • 242230Z AUTO VRB02KT 9999 FEW031/// BKN039/// OVC054/// ///TCU 17/16 Q1012
  • 242200Z AUTO VRB03KT 9999 -RA BKN020/// BKN025/// OVC040/// //////CB 17/16 Q1013

Prévision TAF périmée.



MET'MAP, la Météo Aéronautique d'un coup d'oeil ! - Copyright ORBIFLY Décembre 2007 - Disclaimer

ORBIFLY MET'MAP TEAM :

Programmation & Développement : Alexandra Zaïnal
Sur une idée originale de : Baudouin d'Aumeries
Soutien technique & logistique : Manuel Goepfert
Assistance : Marc-Olivier Méhu




SOURCES & CREDITS :

   NOAA